Station Historical Data
Daily Summary for June 14, 2017 Units:  Metric    English   Both
« Previous Day
Next Day »
Daily Weekly Monthly Yearly Custom
  High: Low: Average:
Temperature: 27.3 °C 15.2 °C 21 °C
Dew Point: 16.8 °C 3.7 °C 12.3 °C
Humidity: 92% 37% 61%
Wind Speed: 20.9km/h 0km/h 6km/h
Wind Gust: 30.6km/h - -
Wind- - ENE
Pressure: 1018.5 hPa 1014.4 hPa -
Precipitation: 0 mm    
Historical Graphs
 
 
Tabular Data for June 14, 2017
Time Temperature Dew Point Pressure Wind Wind Speed Wind Gust Humidity Rainfall Rate (Hourly)
00:04 19 °C 16.8 °C 1015.5 hPa NE 1.6 km/h 4.8 km/h 87% 0 mm
00:09 19 °C 16.8 °C 1015.5 hPa NE 1.6 km/h 4.8 km/h 87% 0 mm
00:14 18.9 °C 16.7 °C 1015.5 hPa NE 1.6 km/h 6.4 km/h 87% 0 mm
00:19 18.9 °C 16.7 °C 1015.5 hPa Calm   1.6 km/h 87% 0 mm
00:24 18.8 °C 16.6 °C 1015.5 hPa Calm   8 km/h 87% 0 mm
00:29 18.7 °C 16.5 °C 1015.5 hPa Calm   4.8 km/h 87% 0 mm
00:34 18.7 °C 16.4 °C 1015.5 hPa Calm   6.4 km/h 87% 0 mm
00:39 18.6 °C 16.4 °C 1015.8 hPa Calm   8 km/h 87% 0 mm
00:44 18.6 °C 16.3 °C 1015.8 hPa ENE 4.8 km/h 4.8 km/h 87% 0 mm
00:49 18.4 °C 16.2 °C 1015.8 hPa Calm   4.8 km/h 87% 0 mm
00:54 18.4 °C 16.2 °C 1015.8 hPa Calm   4.8 km/h 87% 0 mm
00:59 18.3 °C 16.3 °C 1015.8 hPa Calm     88% 0 mm
01:04 18.4 °C 16.4 °C 1015.8 hPa NE 1.6 km/h 4.8 km/h 88% 0 mm
01:09 18.3 °C 16.3 °C 1015.8 hPa NE 3.2 km/h 6.4 km/h 88% 0 mm
01:14 18.3 °C 16.3 °C 1015.8 hPa NE 4.8 km/h 6.4 km/h 88% 0 mm
01:19 18.2 °C 16.2 °C 1015.5 hPa NE 3.2 km/h 6.4 km/h 88% 0 mm
01:24 18.2 °C 16.2 °C 1015.8 hPa NE 3.2 km/h 6.4 km/h 88% 0 mm
01:29 18.1 °C 16.1 °C 1015.8 hPa NE 1.6 km/h 6.4 km/h 88% 0 mm
01:34 18 °C 16 °C 1015.8 hPa NE 1.6 km/h 4.8 km/h 88% 0 mm
01:39 17.9 °C 16.1 °C 1015.8 hPa ENE 3.2 km/h 8 km/h 89% 0 mm
01:44 17.9 °C 16.1 °C 1015.8 hPa Calm   4.8 km/h 89% 0 mm
01:49 17.7 °C 15.7 °C 1015.8 hPa Calm     88% 0 mm
01:54 17.6 °C 15.8 °C 1015.8 hPa Calm     89% 0 mm
01:59 17.4 °C 15.6 °C 1015.8 hPa Calm     89% 0 mm
02:04 17.2 °C 15.4 °C 1015.8 hPa Calm     89% 0 mm
02:09 17.1 °C 15.4 °C 1015.8 hPa Calm   3.2 km/h 90% 0 mm
02:14 17.2 °C 15.6 °C 1015.8 hPa NE 1.6 km/h 6.4 km/h 90% 0 mm
02:19 17.3 °C 15.6 °C 1015.8 hPa Calm   4.8 km/h 90% 0 mm
02:24 17.3 °C 15.6 °C 1015.8 hPa Calm     90% 0 mm
02:29 17.1 °C 15.4 °C 1015.8 hPa Calm     90% 0 mm
02:34 17.1 °C 15.6 °C 1015.8 hPa Calm     91% 0 mm
02:39 17.1 °C 15.6 °C 1015.8 hPa Calm     91% 0 mm
02:44 17.1 °C 15.4 °C 1015.5 hPa Calm     90% 0 mm
02:49 17.1 °C 15.6 °C 1015.5 hPa Calm     91% 0 mm
02:54 17.1 °C 15.6 °C 1015.5 hPa Calm     91% 0 mm
02:59 16.9 °C 15.4 °C 1015.5 hPa Calm     91% 0 mm
03:04 16.9 °C 15.4 °C 1015.5 hPa Calm     91% 0 mm
03:09 16.9 °C 15.4 °C 1015.5 hPa Calm     91% 0 mm
03:14 16.9 °C 15.4 °C 1015.5 hPa Calm     91% 0 mm
03:19 16.8 °C 15.3 °C 1015.5 hPa Calm     91% 0 mm
03:24 16.7 °C 15.2 °C 1015.5 hPa Calm     91% 0 mm
03:29 16.6 °C 15.1 °C 1015.8 hPa Calm     91% 0 mm
03:34 16.5 °C 14.8 °C 1015.8 hPa Calm     90% 0 mm
03:39 16.4 °C 14.9 °C 1015.8 hPa Calm     91% 0 mm
03:44 16.3 °C 14.8 °C 1015.8 hPa Calm     91% 0 mm
03:49 16.1 °C 14.7 °C 1015.8 hPa Calm     91% 0 mm
03:54 16.1 °C 14.6 °C 1015.8 hPa Calm     91% 0 mm
03:59 15.9 °C 14.5 °C 1016.1 hPa Calm     91% 0 mm
04:04 15.7 °C 14.3 °C 1016.1 hPa Calm     91% 0 mm
04:09 15.7 °C 14.2 °C 1016.1 hPa Calm     91% 0 mm
04:14 15.7 °C 14.2 °C 1016.1 hPa Calm     91% 0 mm
04:19 15.7 °C 14.2 °C 1015.8 hPa Calm     91% 0 mm
04:24 15.6 °C 14.1 °C 1016.1 hPa Calm     91% 0 mm
04:29 15.6 °C 14.3 °C 1015.8 hPa Calm     92% 0 mm
04:34 15.5 °C 14.1 °C 1016.1 hPa Calm     91% 0 mm
04:39 15.5 °C 14.2 °C 1016.1 hPa Calm     92% 0 mm
04:44 15.4 °C 14.2 °C 1016.1 hPa Calm     92% 0 mm
04:49 15.6 °C 14.3 °C 1016.1 hPa Calm     92% 0 mm
04:54 15.5 °C 14.2 °C 1016.1 hPa Calm     92% 0 mm
04:59 15.2 °C 13.8 °C 1016.5 hPa Calm     91% 0 mm
05:04 15.2 °C 13.9 °C 1016.5 hPa Calm     92% 0 mm
05:09 15.2 °C 13.9 °C 1016.5 hPa Calm     92% 0 mm
05:14 15.3 °C 14.1 °C 1016.5 hPa Calm     92% 0 mm
05:19 15.4 °C 14.1 °C 1016.5 hPa Calm     92% 0 mm
05:24 15.4 °C 14.2 °C 1016.5 hPa NE 3.2 km/h 4.8 km/h 92% 0 mm
05:29 15.4 °C 14.2 °C 1016.5 hPa NE 1.6 km/h 4.8 km/h 92% 0 mm
05:34 15.3 °C 14.1 °C 1016.8 hPa NE 1.6 km/h 4.8 km/h 92% 0 mm
05:39 15.3 °C 14.1 °C 1016.8 hPa Calm   3.2 km/h 92% 0 mm
05:44 15.3 °C 14 °C 1017.2 hPa Calm   3.2 km/h 92% 0 mm
05:49 15.3 °C 14.1 °C 1017.2 hPa Calm     92% 0 mm
05:54 15.4 °C 14.1 °C 1017.2 hPa Calm     92% 0 mm
05:59 15.5 °C 14.2 °C 1017.2 hPa ENE 3.2 km/h 4.8 km/h 92% 0 mm
06:04 15.5 °C 14.2 °C 1017.2 hPa ENE 1.6 km/h 6.4 km/h 92% 0 mm
06:09 15.6 °C 14.1 °C 1016.8 hPa ENE 1.6 km/h 6.4 km/h 91% 0 mm
06:14 15.6 °C 14.2 °C 1016.8 hPa ENE 1.6 km/h 6.4 km/h 91% 0 mm
06:19 15.7 °C 14.3 °C 1016.8 hPa ENE 1.6 km/h 4.8 km/h 91% 0 mm
06:24 15.7 °C 14.1 °C 1016.8 hPa Calm   3.2 km/h 90% 0 mm
06:29 15.7 °C 14.1 °C 1017.2 hPa Calm   1.6 km/h 90% 0 mm
06:34 15.8 °C 14.2 °C 1016.8 hPa ENE 1.6 km/h 6.4 km/h 90% 0 mm
06:39 16 °C 14.2 °C 1017.2 hPa ENE 1.6 km/h 6.4 km/h 89% 0 mm
06:44 16.1 °C 14.3 °C 1017.2 hPa Calm   1.6 km/h 89% 0 mm
06:49 16.3 °C 14.3 °C 1017.5 hPa Calm     88% 0 mm
06:54 16.4 °C 14.1 °C 1017.5 hPa Calm     86% 0 mm
06:59 16.6 °C 14.1 °C 1017.5 hPa ENE 4.8 km/h 8 km/h 85% 0 mm
07:04 16.8 °C 14.2 °C 1017.8 hPa NNE 3.2 km/h 8 km/h 85% 0 mm
07:09 16.7 °C 14.3 °C 1017.8 hPa NE 3.2 km/h 8 km/h 86% 0 mm
07:14 16.8 °C 14.4 °C 1017.8 hPa NE 3.2 km/h 9.7 km/h 86% 0 mm
07:19 16.8 °C 14.4 °C 1017.8 hPa NE 4.8 km/h 11.3 km/h 86% 0 mm
07:24 16.8 °C 14.4 °C 1017.8 hPa NE 6.4 km/h 14.5 km/h 86% 0 mm
07:29 16.9 °C 14.6 °C 1017.8 hPa NE 3.2 km/h 11.3 km/h 86% 0 mm
07:34 16.9 °C 14.6 °C 1017.8 hPa NE 3.2 km/h 16.1 km/h 86% 0 mm
07:39 17 °C 14.7 °C 1017.8 hPa NE 6.4 km/h 16.1 km/h 86% 0 mm
07:44 17.2 °C 14.8 °C 1017.5 hPa NE 6.4 km/h 11.3 km/h 86% 0 mm
07:49 17.3 °C 14.6 °C 1017.5 hPa ENE 17.7 km/h 17.7 km/h 84% 0 mm
07:54 17.2 °C 14.5 °C 1017.8 hPa East 8 km/h 17.7 km/h 84% 0 mm
07:59 17.4 °C 14.7 °C 1017.8 hPa ENE 4.8 km/h 12.9 km/h 84% 0 mm
08:04 17.7 °C 14.9 °C 1017.8 hPa North 3.2 km/h 12.9 km/h 84% 0 mm
08:09 17.9 °C 14.9 °C 1017.8 hPa ENE 6.4 km/h 14.5 km/h 83% 0 mm
08:14 18.3 °C 15.2 °C 1017.8 hPa ENE 6.4 km/h 14.5 km/h 82% 0 mm
08:19 18.6 °C 15.4 °C 1017.8 hPa NE 4.8 km/h 12.9 km/h 82% 0 mm
08:24 18.7 °C 15.3 °C 1017.8 hPa NE 6.4 km/h 14.5 km/h 81% 0 mm
08:29 18.9 °C 15.2 °C 1018.2 hPa NE 8 km/h 16.1 km/h 79% 0 mm
08:34 19.3 °C 15.6 °C 1017.8 hPa ENE 8 km/h 16.1 km/h 79% 0 mm
08:39 19.4 °C 15.5 °C 1017.8 hPa NE 1.6 km/h 17.7 km/h 78% 0 mm
08:44 19.6 °C 15.6 °C 1018.2 hPa ENE 12.9 km/h 17.7 km/h 78% 0 mm
08:49 19.4 °C 15.1 °C 1018.2 hPa ENE 11.3 km/h 20.9 km/h 76% 0 mm
08:54 19.4 °C 15.1 °C 1018.2 hPa ENE 12.9 km/h 17.7 km/h 76% 0 mm
08:59 19.6 °C 15.1 °C 1018.2 hPa East 11.3 km/h 16.1 km/h 75% 0 mm
09:04 20.1 °C 15.3 °C 1018.2 hPa ESE 14.5 km/h 19.3 km/h 74% 0 mm
09:09 20.3 °C 15.1 °C 1018.2 hPa NE 3.2 km/h 19.3 km/h 72% 0 mm
09:14 20.6 °C 15.1 °C 1018.2 hPa NE 8 km/h 19.3 km/h 71% 0 mm
09:19 20.6 °C 14.9 °C 1018.2 hPa NE 8 km/h 16.1 km/h 70% 0 mm
09:24 20.7 °C 15 °C 1018.2 hPa NE 8 km/h 16.1 km/h 70% 0 mm
09:29 20.7 °C 14.6 °C 1018.5 hPa NE 8 km/h 16.1 km/h 68% 0 mm
09:34 20.7 °C 14.1 °C 1018.5 hPa NE 6.4 km/h 19.3 km/h 66% 0 mm
09:39 20.7 °C 13.8 °C 1018.5 hPa NNE 4.8 km/h 20.9 km/h 65% 0 mm
09:44 20.9 °C 14.1 °C 1018.5 hPa NE 8 km/h 20.9 km/h 65% 0 mm
09:49 21 °C 13.9 °C 1018.2 hPa NE 9.7 km/h 17.7 km/h 64% 0 mm
09:54 21 °C 13.9 °C 1018.2 hPa NE 9.7 km/h 20.9 km/h 64% 0 mm
09:59 21.1 °C 13.8 °C 1018.5 hPa ESE 8 km/h 19.3 km/h 63% 0 mm
10:04 21.4 °C 14.6 °C 1018.5 hPa NE 4.8 km/h 12.9 km/h 65% 0 mm
10:09 21.4 °C 13.8 °C 1018.2 hPa NE 8 km/h 24.1 km/h 62% 0 mm
10:14 21.4 °C 13.8 °C 1018.2 hPa NE 9.7 km/h 24.1 km/h 62% 0 mm
10:19 21.9 °C 14.3 °C 1018.2 hPa ENE 8 km/h 14.5 km/h 62% 0 mm
10:24 22.1 °C 13.9 °C 1018.2 hPa NE 8 km/h 19.3 km/h 60% 0 mm
10:29 22 °C 13.1 °C 1018.2 hPa NE 9.7 km/h 19.3 km/h 57% 0 mm
10:34 22.2 °C 13.5 °C 1017.8 hPa NE 8 km/h 16.1 km/h 58% 0 mm
10:39 22.5 °C 13.3 °C 1017.8 hPa NNE 17.7 km/h 22.5 km/h 56% 0 mm
10:44 22.5 °C 13.6 °C 1017.8 hPa East 9.7 km/h 17.7 km/h 57% 0 mm
10:49 22.8 °C 13.6 °C 1017.8 hPa NE 9.7 km/h 17.7 km/h 56% 0 mm
10:54 22.8 °C 13.6 °C 1017.8 hPa NE 8 km/h 16.1 km/h 56% 0 mm
10:59 23.1 °C 13.5 °C 1017.8 hPa NNE 8 km/h 16.1 km/h 55% 0 mm
11:04 23.5 °C 14.2 °C 1017.8 hPa SSE 3.2 km/h 19.3 km/h 56% 0 mm
11:09 23.5 °C 12.8 °C 1017.5 hPa ENE 12.9 km/h 19.3 km/h 51% 0 mm
11:14 23.3 °C 12.9 °C 1017.5 hPa NE 8 km/h 17.7 km/h 52% 0 mm
11:19 23.6 °C 14.1 °C 1017.5 hPa ENE 4.8 km/h 16.1 km/h 55% 0 mm
11:24 23.7 °C 13.8 °C 1017.5 hPa ENE 9.7 km/h 19.3 km/h 54% 0 mm
11:29 23.9 °C 13.5 °C 1017.5 hPa ENE 6.4 km/h 20.9 km/h 52% 0 mm
11:34 23.8 °C 13.9 °C 1017.5 hPa NE 8 km/h 20.9 km/h 54% 0 mm
11:39 24.3 °C 14.4 °C 1017.5 hPa NE 4.8 km/h 16.1 km/h 54% 0 mm
11:44 24.6 °C 13.7 °C 1017.5 hPa ENE 8 km/h 12.9 km/h 51% 0 mm
11:49 24.4 °C 13.3 °C 1017.8 hPa ENE 8 km/h 20.9 km/h 50% 0 mm
11:54 24.3 °C 12.6 °C 1017.8 hPa ENE 9.7 km/h 22.5 km/h 48% 0 mm
11:59 24.5 °C 13.4 °C 1017.5 hPa ENE 8 km/h 22.5 km/h 50% 0 mm
12:04 24.7 °C 12.9 °C 1017.5 hPa SE 3.2 km/h 16.1 km/h 48% 0 mm
12:09 24.8 °C 13.7 °C 1017.5 hPa East 4.8 km/h 12.9 km/h 50% 0 mm
12:14 25.1 °C 13.3 °C 1017.5 hPa NE 6.4 km/h 22.5 km/h 48% 0 mm
12:19 24.8 °C 12.4 °C 1017.5 hPa ENE 9.7 km/h 25.7 km/h 46% 0 mm
12:24 24.9 °C 13.5 °C 1017.5 hPa Calm   12.9 km/h 49% 0 mm
12:29 24.9 °C 13.8 °C 1017.5 hPa ENE 4.8 km/h 16.1 km/h 50% 0 mm
12:34 25.1 °C 13.7 °C 1017.2 hPa NE 4.8 km/h 22.5 km/h 49% 0 mm
12:39 25.1 °C 13 °C 1017.2 hPa NE 6.4 km/h 17.7 km/h 47% 0 mm
12:44 25.2 °C 13.1 °C 1017.2 hPa ENE 9.7 km/h 17.7 km/h 47% 0 mm
12:49 25.6 °C 12.8 °C 1016.8 hPa ENE 8 km/h 17.7 km/h 45% 0 mm
12:54 25.7 °C 13.2 °C 1016.8 hPa ENE 8 km/h 16.1 km/h 46% 0 mm
12:59 25.8 °C 13.3 °C 1016.8 hPa ENE 9.7 km/h 17.7 km/h 46% 0 mm
13:04 25.4 °C 13.3 °C 1016.8 hPa ENE 8 km/h 17.7 km/h 47% 0 mm
13:09 25.6 °C 13.4 °C 1016.8 hPa Calm   22.5 km/h 47% 0 mm
13:14 26 °C 12.8 °C 1016.8 hPa ENE 9.7 km/h 22.5 km/h 44% 0 mm
13:19 25.8 °C 12.9 °C 1016.8 hPa ENE 9.7 km/h 22.5 km/h 45% 0 mm
13:24 26.1 °C 13.6 °C 1016.8 hPa East 3.2 km/h 14.5 km/h 46% 0 mm
13:29 26.4 °C 12.8 °C 1016.8 hPa NE 6.4 km/h 11.3 km/h 43% 0 mm
13:34 26.2 °C 12.9 °C 1016.8 hPa NNE 8 km/h 17.7 km/h 44% 0 mm
13:39 25.9 °C 13.7 °C 1016.8 hPa NE 6.4 km/h 19.3 km/h 47% 0 mm
13:44 26.1 °C 14.2 °C 1016.8 hPa NE 6.4 km/h 19.3 km/h 48% 0 mm
13:49 26.1 °C 12.2 °C 1016.8 hPa NE 8 km/h 20.9 km/h 42% 0 mm
13:54 26.2 °C 13.3 °C 1016.5 hPa NE 6.4 km/h 20.9 km/h 45% 0 mm
13:59 26.4 °C 12.8 °C 1016.5 hPa NE 4.8 km/h 14.5 km/h 43% 0 mm
14:04 26.4 °C 12.4 °C 1016.5 hPa NE 17.7 km/h 17.7 km/h 42% 0 mm
14:09 26.3 °C 13.1 °C 1016.5 hPa NE 9.7 km/h 22.5 km/h 44% 0 mm
14:14 26.4 °C 13.2 °C 1016.5 hPa ENE 9.7 km/h 22.5 km/h 44% 0 mm
14:19 26.3 °C 13.8 °C 1016.5 hPa North 6.4 km/h 22.5 km/h 46% 0 mm
14:24 26.5 °C 13.6 °C 1016.5 hPa NE 6.4 km/h 22.5 km/h 45% 0 mm
14:29 26.7 °C 12.4 °C 1016.5 hPa NE 6.4 km/h 20.9 km/h 41% 0 mm
14:34 26.6 °C 12.2 °C 1016.5 hPa NNE 4.8 km/h 17.7 km/h 41% 0 mm
14:39 26.6 °C 11.5 °C 1016.5 hPa NE 8 km/h 19.3 km/h 39% 0 mm
14:44 26.6 °C 13.3 °C 1016.5 hPa NE 8 km/h 19.3 km/h 44% 0 mm
14:49 27.1 °C 13.8 °C 1016.5 hPa NE 6.4 km/h 16.1 km/h 44% 0 mm
14:54 27.2 °C 12.4 °C 1016.5 hPa ENE 6.4 km/h 16.1 km/h 40% 0 mm
14:59 26.8 °C 12.8 °C 1016.5 hPa NNE 3.2 km/h 14.5 km/h 42% 0 mm
15:04 26.9 °C 12.5 °C 1016.5 hPa SE 6.4 km/h 16.1 km/h 41% 0 mm
15:09 26.9 °C 13.7 °C 1016.5 hPa NE 6.4 km/h 20.9 km/h 44% 0 mm
15:14 26.9 °C 12.9 °C 1016.5 hPa ENE 8 km/h 20.9 km/h 42% 0 mm
15:19 27.2 °C 12.4 °C 1016.1 hPa SE 4.8 km/h 19.3 km/h 40% 0 mm
15:24 27.2 °C 13.6 °C 1016.5 hPa East 4.8 km/h 16.1 km/h 43% 0 mm
15:29 27.2 °C 11.6 °C 1016.5 hPa SE 1.6 km/h 16.1 km/h 38% 0 mm
15:34 26.8 °C 11.7 °C 1016.5 hPa NNE 12.9 km/h 22.5 km/h 39% 0 mm
15:39 26.8 °C 11.7 °C 1016.5 hPa NE 8 km/h 22.5 km/h 39% 0 mm
15:44 26.8 °C 12.8 °C 1016.1 hPa NE 8 km/h 19.3 km/h 42% 0 mm
15:49 27 °C 11.4 °C 1016.5 hPa NE 8 km/h 14.5 km/h 38% 0 mm
15:54 26.9 °C 11.8 °C 1016.1 hPa NE 8 km/h 19.3 km/h 39% 0 mm
15:59 26.9 °C 13.3 °C 1016.1 hPa North 3.2 km/h 19.3 km/h 43% 0 mm
16:04 26.9 °C 11.4 °C 1016.1 hPa NE 12.9 km/h 17.7 km/h 38% 0 mm
16:09 27.1 °C 11.9 °C 1016.1 hPa ENE 8 km/h 17.7 km/h 39% 0 mm
16:14 27.3 °C 11.3 °C 1016.1 hPa ENE 8 km/h 17.7 km/h 37% 0 mm
16:19 27.3 °C 11.7 °C 1015.8 hPa SE 3.2 km/h 12.9 km/h 38% 0 mm
16:24 27.2 °C 12 °C 1015.8 hPa NE 9.7 km/h 16.1 km/h 39% 0 mm
16:29 27.1 °C 11.1 °C 1015.8 hPa ENE 11.3 km/h 16.1 km/h 37% 0 mm
16:34 26.9 °C 12.6 °C 1015.8 hPa NNE 8 km/h 22.5 km/h 41% 0 mm
16:39 26.8 °C 12.8 °C 1015.8 hPa NE 9.7 km/h 22.5 km/h 42% 0 mm
16:44 26.8 °C 13.2 °C 1015.8 hPa NE 8 km/h 17.7 km/h 43% 0 mm
16:49 26.4 °C 13.6 °C 1015.8 hPa NE 6.4 km/h 17.7 km/h 45% 0 mm
16:54 26.4 °C 13.2 °C 1015.8 hPa NNE 6.4 km/h 16.1 km/h 44% 0 mm
16:59 26.5 °C 13.6 °C 1015.8 hPa North 6.4 km/h 14.5 km/h 45% 0 mm
17:04 26.5 °C 13.6 °C 1015.5 hPa ENE 14.5 km/h 16.1 km/h 45% 0 mm
17:09 26.6 °C 12.7 °C 1015.5 hPa NE 8 km/h 17.7 km/h 42% 0 mm
17:14 26.7 °C 13.4 °C 1015.5 hPa NE 8 km/h 17.7 km/h 44% 0 mm
17:19 26.7 °C 13.1 °C 1015.5 hPa NE 8 km/h 17.7 km/h 43% 0 mm
17:24 26.4 °C 12.5 °C 1015.5 hPa NE 9.7 km/h 19.3 km/h 42% 0 mm
17:29 26.6 °C 13.3 °C 1015.5 hPa NE 12.9 km/h 17.7 km/h 44% 0 mm
17:34 26.3 °C 12.7 °C 1015.1 hPa NE 3.2 km/h 20.9 km/h 43% 0 mm
17:39 26.2 °C 12.6 °C 1015.1 hPa NE 9.7 km/h 20.9 km/h 43% 0 mm
17:44 25.9 °C 12.8 °C 1015.1 hPa NE 6.4 km/h 20.9 km/h 44% 0 mm
17:49 25.8 °C 12.6 °C 1015.1 hPa NNE 4.8 km/h 25.7 km/h 44% 0 mm
17:54 25.8 °C 12.2 °C 1015.1 hPa ENE 14.5 km/h 17.7 km/h 43% 0 mm
17:59 25.5 °C 12.3 °C 1015.1 hPa ENE 14.5 km/h 20.9 km/h 44% 0 mm
18:04 25.5 °C 11.7 °C 1015.1 hPa NE 20.9 km/h 24.1 km/h 42% 0 mm
18:09 25.4 °C 11.6 °C 1015.1 hPa NE 11.3 km/h 24.1 km/h 42% 0 mm
18:14 25.2 °C 11.4 °C 1014.8 hPa ENE 12.9 km/h 22.5 km/h 42% 0 mm
18:19 25 °C 11.2 °C 1014.8 hPa NE 4.8 km/h 27.4 km/h 42% 0 mm
18:24 25.1 °C 10.9 °C 1014.8 hPa NE 20.9 km/h 22.5 km/h 41% 0 mm
18:29 24.8 °C 10.7 °C 1014.8 hPa East 20.9 km/h 27.4 km/h 41% 0 mm
18:34 24.8 °C 10.6 °C 1014.8 hPa NE 12.9 km/h 27.4 km/h 41% 0 mm
18:39 24.7 °C 10.2 °C 1014.8 hPa NE 12.9 km/h 29 km/h 40% 0 mm
18:44 24.5 °C 10.4 °C 1014.8 hPa NE 11.3 km/h 29 km/h 41% 0 mm
18:49 24.4 °C 9.9 °C 1014.8 hPa NE 12.9 km/h 25.7 km/h 40% 0 mm
18:54 24.3 °C 9.8 °C 1014.8 hPa ENE 16.1 km/h 30.6 km/h 40% 0 mm
18:59 24.1 °C 9.7 °C 1014.8 hPa ENE 16.1 km/h 30.6 km/h 40% 0 mm
19:04 24 °C 9.6 °C 1014.8 hPa ENE 14.5 km/h 27.4 km/h 40% 0 mm
19:09 23.8 °C 9.4 °C 1014.8 hPa NE 16.1 km/h 29 km/h 40% 0 mm
19:14 23.7 °C 9.3 °C 1014.8 hPa ENE 12.9 km/h 24.1 km/h 40% 0 mm
19:19 23.6 °C 9.2 °C 1014.8 hPa ENE 6.4 km/h 25.7 km/h 40% 0 mm
19:24 23.6 °C 9.2 °C 1014.8 hPa NE 11.3 km/h 20.9 km/h 40% 0 mm
19:29 23.4 °C 9.1 °C 1014.8 hPa NE 17.7 km/h 25.7 km/h 40% 0 mm
19:34 23.3 °C 9.3 °C 1014.8 hPa ENE 11.3 km/h 25.7 km/h 41% 0 mm
19:39 23.2 °C 9.2 °C 1014.8 hPa ENE 11.3 km/h 24.1 km/h 41% 0 mm
19:44 23.1 °C 8.3 °C 1014.8 hPa ENE 11.3 km/h 29 km/h 39% 0 mm
19:49 22.9 °C 8.2 °C 1014.8 hPa ENE 9.7 km/h 29 km/h 39% 0 mm
19:54 22.7 °C 8.1 °C 1014.8 hPa ENE 11.3 km/h 24.1 km/h 39% 0 mm
19:59 22.5 °C 7.8 °C 1014.8 hPa NE 9.7 km/h 25.7 km/h 39% 0 mm
20:04 22.3 °C 8 °C 1014.8 hPa ENE 14.5 km/h 24.1 km/h 40% 0 mm
20:09 22.2 °C 7.9 °C 1014.8 hPa NNE 16.1 km/h 22.5 km/h 40% 0 mm
20:14 22 °C 7.8 °C 1014.4 hPa NNE 12.9 km/h 20.9 km/h 40% 0 mm
20:19 21.8 °C 8 °C 1014.4 hPa NE 9.7 km/h 17.7 km/h 41% 0 mm
20:24 21.7 °C 7.5 °C 1014.8 hPa East 11.3 km/h 16.1 km/h 40% 0 mm
20:29 21.6 °C 7 °C 1014.8 hPa ENE 9.7 km/h 16.1 km/h 39% 0 mm
20:34 21.4 °C 6.8 °C 1014.8 hPa ENE 8 km/h 19.3 km/h 39% 0 mm
20:39 21.2 °C 6.7 °C 1014.8 hPa ENE 8 km/h 19.3 km/h 39% 0 mm
20:44 21.1 °C 6.9 °C 1014.8 hPa East 9.7 km/h 16.1 km/h 40% 0 mm
20:49 20.9 °C 6.4 °C 1015.1 hPa ENE 6.4 km/h 16.1 km/h 39% 0 mm
20:54 20.8 °C 6.3 °C 1015.1 hPa East 11.3 km/h 17.7 km/h 39% 0 mm
20:59 20.6 °C 6.2 °C 1015.1 hPa ENE 8 km/h 20.9 km/h 39% 0 mm
21:04 20.6 °C 5.7 °C 1015.1 hPa ENE 8 km/h 20.9 km/h 38% 0 mm
21:09 20.4 °C 5.6 °C 1015.1 hPa ENE 8 km/h 17.7 km/h 38% 0 mm
21:14 20.3 °C 5.6 °C 1015.1 hPa ENE 6.4 km/h 16.1 km/h 38% 0 mm
21:19 20.2 °C 5.4 °C 1015.1 hPa ESE 6.4 km/h 17.7 km/h 38% 0 mm
21:24 20.1 °C 5.7 °C 1015.1 hPa East 9.7 km/h 14.5 km/h 39% 0 mm
21:29 20 °C 5.2 °C 1015.1 hPa ENE 8 km/h 14.5 km/h 38% 0 mm
21:34 19.9 °C 5.5 °C 1014.8 hPa ENE 8 km/h 14.5 km/h 39% 0 mm
21:39 19.8 °C 5.1 °C 1015.1 hPa ENE 6.4 km/h 14.5 km/h 38% 0 mm
21:44 19.7 °C 4.9 °C 1015.1 hPa NE 6.4 km/h 16.1 km/h 38% 0 mm
21:49 19.6 °C 4.8 °C 1015.1 hPa ENE 3.2 km/h 12.9 km/h 38% 0 mm
21:54 19.4 °C 4.4 °C 1015.1 hPa East 4.8 km/h 12.9 km/h 37% 0 mm
21:59 19.3 °C 4.6 °C 1015.5 hPa ENE 6.4 km/h 12.9 km/h 38% 0 mm
22:04 19.2 °C 4.5 °C 1015.5 hPa ENE 4.8 km/h 16.1 km/h 38% 0 mm
22:09 19.2 °C 4.5 °C 1015.5 hPa ENE 6.4 km/h 16.1 km/h 38% 0 mm
22:14 19 °C 3.9 °C 1015.5 hPa ENE 4.8 km/h 16.1 km/h 37% 0 mm
22:19 18.9 °C 3.9 °C 1015.5 hPa ENE 4.8 km/h 12.9 km/h 37% 0 mm
22:24 18.9 °C 4.3 °C 1015.5 hPa ENE 6.4 km/h 14.5 km/h 38% 0 mm
22:29 18.8 °C 4.2 °C 1015.5 hPa ENE 6.4 km/h 16.1 km/h 38% 0 mm
22:34 18.7 °C 4.1 °C 1015.5 hPa NE 3.2 km/h 16.1 km/h 38% 0 mm
22:39 18.6 °C 3.9 °C 1015.5 hPa ENE 4.8 km/h 12.9 km/h 38% 0 mm
22:44 18.5 °C 4.3 °C 1015.8 hPa ENE 4.8 km/h 11.3 km/h 39% 0 mm
22:49 18.4 °C 4.2 °C 1015.8 hPa East 9.7 km/h 11.3 km/h 39% 0 mm
22:54 18.3 °C 4.1 °C 1015.8 hPa ENE 6.4 km/h 14.5 km/h 39% 0 mm
22:59 18.2 °C 4 °C 1015.8 hPa ENE 4.8 km/h 14.5 km/h 39% 0 mm
23:04 18.1 °C 4.3 °C 1015.8 hPa ENE 4.8 km/h 12.9 km/h 40% 0 mm
23:09 18.1 °C 4.2 °C 1015.8 hPa ENE 4.8 km/h 11.3 km/h 40% 0 mm
23:14 17.9 °C 4.1 °C 1015.5 hPa ENE 4.8 km/h 11.3 km/h 40% 0 mm
23:19 17.9 °C 4.1 °C 1015.8 hPa ENE 4.8 km/h 11.3 km/h 40% 0 mm
23:24 17.8 °C 4.1 °C 1015.5 hPa ENE 1.6 km/h 6.4 km/h 40% 0 mm
23:29 17.7 °C 4.3 °C 1015.5 hPa ENE 3.2 km/h 8 km/h 41% 0 mm
23:34 17.6 °C 3.8 °C 1015.5 hPa NE 3.2 km/h 8 km/h 40% 0 mm
23:39 17.6 °C 4.2 °C 1015.5 hPa East 4.8 km/h 9.7 km/h 41% 0 mm
23:44 17.6 °C 4.2 °C 1015.1 hPa ENE 3.2 km/h 11.3 km/h 41% 0 mm
23:49 17.5 °C 3.7 °C 1015.1 hPa ENE 6.4 km/h 8 km/h 40% 0 mm
23:54 17.4 °C 4.1 °C 1015.1 hPa ENE 3.2 km/h 8 km/h 41% 0 mm
23:59 17.3 °C 3.9 °C 1015.1 hPa ENE 3.2 km/h 8 km/h 41% 0 mm
Buffalo, New York, USA
Compliments of Weather Underground - 2.5 mb